createdAt,value
2022-10-30T00:02:05.414Z,100120.11
2022-10-30T00:04:53.107Z,100124.52
2022-10-30T00:07:40.901Z,100119.94
2022-10-30T00:10:28.766Z,100116.09
2022-10-30T00:13:17.874Z,100124.98
2022-10-30T00:16:09.185Z,100137.98
2022-10-30T00:18:56.662Z,100134.58
2022-10-30T00:21:44.817Z,100117.08
2022-10-30T00:24:32.447Z,100104.78
2022-10-30T00:27:20.420Z,100113.48
2022-10-30T00:30:09.284Z,100126.20
2022-10-30T00:32:57.878Z,100123.98
2022-10-30T00:35:49.609Z,100118.77
2022-10-30T00:38:37.332Z,100118.98
2022-10-30T00:41:25.595Z,100122.47
2022-10-30T00:44:41.113Z,100124.55
2022-10-30T00:47:37.714Z,100130.63
2022-10-30T00:50:37.130Z,100123.52
2022-10-30T00:53:25.338Z,100131.31
2022-10-30T00:56:15.887Z,100136.58
2022-10-30T00:59:09.720Z,100141.35
2022-10-30T01:01:58.158Z,100139.11
2022-10-30T01:04:47.381Z,100139.61
2022-10-30T01:07:35.466Z,100139.61
2022-10-30T01:10:24.846Z,100140.75
2022-10-30T01:13:13.034Z,100141.60
2022-10-30T01:16:07.266Z,100144.48
2022-10-30T01:18:55.298Z,100145.66
2022-10-30T01:21:57.590Z,100143.08
2022-10-30T01:25:33.699Z,100140.99
2022-10-30T01:28:47.663Z,100136.95
2022-10-30T01:31:41.581Z,100124.73
2022-10-30T01:35:05.060Z,100128.80
2022-10-30T01:38:05.222Z,100125.88
2022-10-30T01:40:53.292Z,100125.16
2022-10-30T01:43:42.720Z,100124.22
2022-10-30T01:46:58.537Z,100125.17
2022-10-30T01:50:08.161Z,100127.33
2022-10-30T01:53:52.013Z,100121.70
2022-10-30T01:56:57.929Z,100134.34
2022-10-30T02:00:10.742Z,100138.73
2022-10-30T02:03:01.940Z,100133.33
2022-10-30T02:05:53.665Z,100131.45
2022-10-30T02:08:41.818Z,100129.48
2022-10-30T02:11:33.631Z,100129.13
2022-10-30T02:14:31.415Z,100119.67
2022-10-30T02:17:20.325Z,100122.81
2022-10-30T02:20:24.393Z,100131.41
2022-10-30T02:23:19.040Z,100143.35
2022-10-30T02:26:06.852Z,100137.91
2022-10-30T02:28:54.670Z,100126.83
2022-10-30T02:31:42.493Z,100131.13
2022-10-30T02:34:30.225Z,100133.13
2022-10-30T02:37:18.309Z,100134.00
2022-10-30T02:40:10.280Z,100132.71
2022-10-30T02:42:58.053Z,100123.31
2022-10-30T02:45:51.892Z,100130.14
2022-10-30T02:48:40.297Z,100129.33
2022-10-30T02:51:31.248Z,100132.23
2022-10-30T02:54:19.138Z,100129.70
2022-10-30T02:57:06.978Z,100124.65
2022-10-30T02:59:54.816Z,100116.30
2022-10-30T03:02:43.217Z,100127.41
2022-10-30T03:05:31.297Z,100134.52
2022-10-30T03:08:19.346Z,100131.16
2022-10-30T03:11:11.777Z,100132.61
2022-10-30T03:13:59.574Z,100140.13
2022-10-30T03:16:47.358Z,100139.46
2022-10-30T03:19:36.768Z,100134.08
2022-10-30T03:22:27.211Z,100125.27
2022-10-30T03:25:15.417Z,100119.84
2022-10-30T03:28:03.109Z,100131.61
2022-10-30T03:30:52.490Z,100135.95
2022-10-30T03:33:41.625Z,100137.55
2022-10-30T03:36:29.387Z,100135.11
2022-10-30T03:39:17.095Z,100139.98
2022-10-30T03:42:06.214Z,100132.22
2022-10-30T03:44:55.941Z,100134.96
2022-10-30T03:47:43.464Z,100129.44
2022-10-30T03:50:31.712Z,100149.31
2022-10-30T03:53:19.204Z,100161.27
2022-10-30T03:56:10.508Z,100156.85
2022-10-30T03:59:04.011Z,100147.70
2022-10-30T04:01:52.385Z,100143.06
2022-10-30T04:04:40.525Z,100157.73
2022-10-30T04:07:29.514Z,100156.08
2022-10-30T04:10:21.051Z,100152.98
2022-10-30T04:13:13.937Z,100146.47
2022-10-30T04:16:07.223Z,100145.88
2022-10-30T04:18:54.933Z,100144.16
2022-10-30T04:21:43.893Z,100147.57
2022-10-30T04:24:32.874Z,100147.38
2022-10-30T04:27:20.825Z,100146.76
2022-10-30T04:30:11.797Z,100152.28
2022-10-30T04:33:01.571Z,100144.73
2022-10-30T04:35:49.445Z,100142.36
2022-10-30T04:38:38.711Z,100142.88
2022-10-30T04:41:27.549Z,100151.23
2022-10-30T04:44:28.127Z,100154.70
2022-10-30T04:47:17.475Z,100157.23
2022-10-30T04:50:07.040Z,100160.08
2022-10-30T04:53:17.227Z,100158.11
2022-10-30T04:56:08.419Z,100161.43
2022-10-30T04:58:57.937Z,100162.28
2022-10-30T05:01:45.886Z,100160.75
2022-10-30T05:04:33.682Z,100160.55
2022-10-30T05:07:22.903Z,100163.34
2022-10-30T05:10:18.514Z,100162.22
2022-10-30T05:13:06.388Z,100149.96
2022-10-30T05:15:55.603Z,100150.20
2022-10-30T05:18:43.372Z,100156.14
2022-10-30T05:21:31.188Z,100158.64
2022-10-30T05:24:19.540Z,100157.88
2022-10-30T05:27:07.525Z,100154.98
2022-10-30T05:29:55.349Z,100154.74
2022-10-30T05:32:42.911Z,100155.80
2022-10-30T05:35:32.916Z,100158.27
2022-10-30T05:38:21.172Z,100152.25
2022-10-30T05:41:08.942Z,100143.70
2022-10-30T05:43:57.049Z,100138.55
2022-10-30T05:46:46.813Z,100136.67
2022-10-30T05:50:00.499Z,100136.45
2022-10-30T05:52:48.465Z,100138.05
2022-10-30T05:55:36.962Z,100142.17
2022-10-30T05:58:30.537Z,100142.52
2022-10-30T06:01:19.692Z,100144.41
2022-10-30T06:04:09.605Z,100144.25
2022-10-30T06:06:57.435Z,100145.52
2022-10-30T06:09:45.326Z,100143.05
2022-10-30T06:12:44.299Z,100146.78
2022-10-30T06:15:56.455Z,100148.52
2022-10-30T06:18:45.838Z,100157.98
2022-10-30T06:21:34.521Z,100166.43
2022-10-30T06:24:47.221Z,100161.15
2022-10-30T06:28:01.722Z,100152.86
2022-10-30T06:30:51.381Z,100157.56
2022-10-30T06:33:40.594Z,100158.38
2022-10-30T06:36:28.516Z,100157.77
2022-10-30T06:39:16.971Z,100156.73
2022-10-30T06:42:26.730Z,100158.95
2022-10-30T06:45:26.451Z,100166.23
2022-10-30T06:48:14.480Z,100166.41
2022-10-30T06:51:07.562Z,100171.05
2022-10-30T06:53:58.359Z,100170.98
2022-10-30T06:57:04.352Z,100168.98
2022-10-30T07:00:21.251Z,100172.81
2022-10-30T07:03:41.748Z,100170.21
2022-10-30T07:06:30.713Z,100175.88
2022-10-30T07:09:20.870Z,100173.68
2022-10-30T07:12:10.224Z,100168.21
2022-10-30T07:15:16.902Z,100171.20
2022-10-30T07:18:23.272Z,100183.10
2022-10-30T07:21:15.037Z,100191.65
2022-10-30T07:24:02.595Z,100194.61
2022-10-30T07:26:57.178Z,100195.96
2022-10-30T07:30:01.243Z,100199.30
2022-10-30T07:33:02.462Z,100210.44
2022-10-30T07:36:15.174Z,100205.88
2022-10-30T07:39:08.265Z,100204.10
2022-10-30T07:42:00.849Z,100205.98
2022-10-30T07:48:20.462Z,100203.87
2022-10-30T07:51:20.133Z,100199.73
2022-10-30T07:54:10.303Z,100201.52
2022-10-30T07:56:59.101Z,100200.77
2022-10-30T08:00:17.623Z,100197.88
2022-10-30T08:03:09.869Z,100193.09
2022-10-30T08:06:16.821Z,100192.25
2022-10-30T08:09:05.307Z,100189.27
2022-10-30T08:11:54.173Z,100189.73
2022-10-30T08:14:42.296Z,100192.67
2022-10-30T08:17:30.338Z,100192.09
2022-10-30T08:20:22.107Z,100194.16
2022-10-30T08:23:10.618Z,100198.44
2022-10-30T08:26:02.184Z,100197.62
2022-10-30T08:28:50.044Z,100194.04
2022-10-30T08:31:37.890Z,100192.13
2022-10-30T08:34:54.787Z,100198.86
2022-10-30T08:37:43.667Z,100194.83
2022-10-30T08:40:31.815Z,100191.33
2022-10-30T08:43:27.067Z,100193.49
2022-10-30T08:46:16.680Z,100189.79
2022-10-30T08:49:04.826Z,100191.66
2022-10-30T08:51:57.190Z,100195.01
2022-10-30T08:54:50.023Z,100191.88
2022-10-30T08:57:38.721Z,100195.37
2022-10-30T09:00:27.589Z,100192.52
2022-10-30T09:03:36.229Z,100201.44
2022-10-30T09:06:51.742Z,100207.64
2022-10-30T09:09:45.554Z,100203.86
2022-10-30T09:12:33.872Z,100199.58
2022-10-30T09:15:22.693Z,100201.37
2022-10-30T09:18:15.017Z,100201.98
2022-10-30T09:21:05.142Z,100210.78
2022-10-30T09:23:57.402Z,100214.39
2022-10-30T09:26:56.878Z,100217.35
2022-10-30T09:29:49.590Z,100221.08
2022-10-30T09:32:59.439Z,100224.89
2022-10-30T09:36:05.291Z,100232.89
2022-10-30T09:38:55.580Z,100228.63
2022-10-30T09:42:05.775Z,100233.52
2022-10-30T09:45:30.028Z,100224.81
2022-10-30T09:48:37.941Z,100221.75
2022-10-30T09:52:06.620Z,100214.83
2022-10-30T09:55:33.745Z,100217.88
2022-10-30T09:58:52.725Z,100224.17
2022-10-30T10:01:50.090Z,100220.21
2022-10-30T10:04:51.841Z,100220.44
2022-10-30T10:08:10.500Z,100223.80
2022-10-30T10:11:26.869Z,100224.29
2022-10-30T10:14:18.207Z,100233.85
2022-10-30T10:17:24.484Z,100234.86
2022-10-30T10:20:43.756Z,100236.41
2022-10-30T10:23:39.564Z,100225.13
2022-10-30T10:26:53.180Z,100222.44
2022-10-30T10:30:11.920Z,100217.83
2022-10-30T10:34:26.411Z,100224.17
2022-10-30T10:37:49.598Z,100217.92
2022-10-30T10:41:15.425Z,100222.68
2022-10-30T10:44:36.536Z,100223.91
2022-10-30T10:47:51.913Z,100227.44
2022-10-30T10:50:56.356Z,100226.55
2022-10-30T10:54:07.177Z,100226.98
2022-10-30T10:56:56.006Z,100225.72
2022-10-30T10:59:50.353Z,100222.28
2022-10-30T11:03:02.801Z,100223.20
2022-10-30T11:06:28.396Z,100224.52
2022-10-30T11:09:20.101Z,100223.92
2022-10-30T11:12:08.619Z,100221.63
2022-10-30T11:15:03.608Z,100224.08
2022-10-30T11:18:01.202Z,100227.14
2022-10-30T11:21:00.059Z,100229.48
2022-10-30T11:23:49.734Z,100230.95
2022-10-30T11:26:37.631Z,100223.98
2022-10-30T11:29:30.231Z,100224.83
2022-10-30T11:32:26.658Z,100225.44
2022-10-30T11:35:20.694Z,100226.78
2022-10-30T11:38:21.384Z,100226.43
2022-10-30T11:41:12.749Z,100227.15
2022-10-30T11:44:00.617Z,100232.06
2022-10-30T11:46:48.445Z,100229.05
2022-10-30T11:49:42.113Z,100221.02
2022-10-30T11:52:38.468Z,100220.56
2022-10-30T11:55:49.830Z,100216.10
2022-10-30T11:58:45.187Z,100218.89
2022-10-30T12:01:37.048Z,100216.77
2022-10-30T12:04:27.815Z,100207.61
2022-10-30T12:07:33.635Z,100206.53
2022-10-30T12:10:27.454Z,100208.55
2022-10-30T12:13:21.287Z,100211.52
2022-10-30T12:16:08.970Z,100206.33
2022-10-30T12:19:04.071Z,100207.27
2022-10-30T12:21:58.644Z,100201.29
2022-10-30T12:24:46.496Z,100205.32
2022-10-30T12:27:38.643Z,100200.73
2022-10-30T12:30:29.125Z,100203.40
2022-10-30T12:33:20.798Z,100206.53
2022-10-30T12:36:25.570Z,100208.67
2022-10-30T12:39:44.959Z,100204.34
2022-10-30T12:42:40.359Z,100208.59
2022-10-30T12:45:37.794Z,100206.92
2022-10-30T12:48:34.144Z,100207.70
2022-10-30T12:52:08.962Z,100202.33
2022-10-30T12:55:16.488Z,100194.05
2022-10-30T12:58:45.440Z,100192.83
2022-10-30T13:01:43.803Z,100193.34
2022-10-30T13:04:42.220Z,100191.63
2022-10-30T13:07:56.135Z,100191.79
2022-10-30T13:11:04.382Z,100197.80
2022-10-30T13:13:55.058Z,100198.34
2022-10-30T13:16:43.035Z,100192.02
2022-10-30T13:19:30.919Z,100188.91
2022-10-30T13:22:44.620Z,100191.98
2022-10-30T13:25:49.240Z,100192.76
2022-10-30T13:29:21.805Z,100191.22
2022-10-30T13:32:47.615Z,100188.33
2022-10-30T13:36:24.966Z,100186.23
2022-10-30T13:39:41.092Z,100185.76
2022-10-30T13:42:38.632Z,100183.60
2022-10-30T13:46:18.425Z,100187.71
2022-10-30T13:49:41.600Z,100183.42
2022-10-30T13:52:33.593Z,100188.44
2022-10-30T13:55:37.523Z,100183.89
2022-10-30T13:58:46.406Z,100186.79
2022-10-30T14:02:00.644Z,100184.75
2022-10-30T14:05:18.583Z,100180.83
2022-10-30T14:08:22.720Z,100188.60
2022-10-30T14:11:17.010Z,100188.23
2022-10-30T14:14:35.252Z,100191.27
2022-10-30T14:17:26.907Z,100194.09
2022-10-30T14:20:20.527Z,100187.62
2022-10-30T14:23:15.712Z,100186.14
2022-10-30T14:26:06.243Z,100190.48
2022-10-30T14:28:56.368Z,100186.56
2022-10-30T14:31:48.740Z,100182.71
2022-10-30T14:34:53.241Z,100181.80
2022-10-30T14:37:41.796Z,100182.48
2022-10-30T14:40:44.296Z,100179.37
2022-10-30T14:43:59.345Z,100185.70
2022-10-30T14:47:05.361Z,100186.61
2022-10-30T14:50:22.224Z,100189.81
2022-10-30T14:53:34.801Z,100190.80
2022-10-30T14:56:41.465Z,100189.05
2022-10-30T14:59:34.620Z,100187.98
2022-10-30T15:02:35.529Z,100180.00
2022-10-30T15:05:59.715Z,100178.87
2022-10-30T15:09:15.334Z,100176.42
2022-10-30T15:12:12.344Z,100169.98
2022-10-30T15:15:04.787Z,100170.50
2022-10-30T15:17:59.956Z,100174.98
2022-10-30T15:20:53.935Z,100181.75
2022-10-30T15:23:42.200Z,100178.16
2022-10-30T15:26:36.837Z,100176.95
2022-10-30T15:29:33.387Z,100174.98
2022-10-30T15:32:24.370Z,100178.48
2022-10-30T15:35:20.782Z,100178.73
2022-10-30T15:38:10.877Z,100177.45
2022-10-30T15:41:09.800Z,100174.44
2022-10-30T15:43:59.161Z,100178.99
2022-10-30T15:47:01.016Z,100179.46
2022-10-30T15:49:54.551Z,100177.71
2022-10-30T15:52:44.894Z,100181.29
2022-10-30T15:55:41.076Z,100180.92
2022-10-30T15:58:34.059Z,100185.92
2022-10-30T16:01:49.367Z,100189.45
2022-10-30T16:04:39.468Z,100187.66
2022-10-30T16:07:30.101Z,100188.98
2022-10-30T16:10:18.706Z,100184.30
2022-10-30T16:13:06.555Z,100183.89
2022-10-30T16:15:54.409Z,100184.35
2022-10-30T16:18:42.383Z,100186.51
2022-10-30T16:21:31.339Z,100186.90
2022-10-30T16:24:19.488Z,100187.44
2022-10-30T16:27:20.979Z,100189.65
2022-10-30T16:30:14.215Z,100191.10
2022-10-30T16:33:02.164Z,100193.44
2022-10-30T16:35:55.576Z,100194.02
2022-10-30T16:38:48.987Z,100195.10
2022-10-30T16:41:36.789Z,100195.35
2022-10-30T16:44:35.998Z,100197.70
2022-10-30T16:47:25.958Z,100196.77
2022-10-30T16:50:16.860Z,100195.72
2022-10-30T16:53:24.524Z,100196.19
2022-10-30T16:56:31.495Z,100196.77
2022-10-30T16:59:26.772Z,100203.19
2022-10-30T17:02:24.370Z,100200.71
2022-10-30T17:05:34.408Z,100205.31
2022-10-30T17:08:50.277Z,100209.06
2022-10-30T17:11:46.994Z,100204.52
2022-10-30T17:14:47.145Z,100206.72
2022-10-30T17:17:39.370Z,100208.62
2022-10-30T17:20:30.907Z,100214.60
2022-10-30T17:23:20.081Z,100215.98
2022-10-30T17:26:10.874Z,100215.96
2022-10-30T17:28:58.615Z,100215.91
2022-10-30T17:31:48.363Z,100215.23
2022-10-30T17:34:38.965Z,100218.26
2022-10-30T17:37:26.964Z,100217.57
2022-10-30T17:40:15.733Z,100221.77
2022-10-30T17:43:03.301Z,100225.08
2022-10-30T17:45:51.648Z,100227.13
2022-10-30T17:48:41.691Z,100223.73
2022-10-30T17:51:31.904Z,100224.55
2022-10-30T17:54:20.679Z,100220.71
2022-10-30T17:57:13.660Z,100219.11
2022-10-30T18:00:02.147Z,100221.28
2022-10-30T18:02:59.656Z,100220.06
2022-10-30T18:05:48.584Z,100224.14
2022-10-30T18:08:36.597Z,100228.70
2022-10-30T18:11:27.230Z,100231.05
2022-10-30T18:14:15.271Z,100227.10
2022-10-30T18:17:03.455Z,100231.61
2022-10-30T18:19:51.434Z,100237.70
2022-10-30T18:22:39.242Z,100237.34
2022-10-30T18:25:32.349Z,100234.46
2022-10-30T18:28:20.023Z,100233.20
2022-10-30T18:31:17.877Z,100230.88
2022-10-30T18:34:11.516Z,100236.34
2022-10-30T18:36:59.113Z,100231.77
2022-10-30T18:39:46.891Z,100233.01
2022-10-30T18:42:34.739Z,100243.00
2022-10-30T18:45:25.727Z,100242.48
2022-10-30T18:48:13.511Z,100237.45
2022-10-30T18:51:00.980Z,100237.86
2022-10-30T18:53:52.484Z,100238.52
2022-10-30T18:56:40.760Z,100240.36
2022-10-30T18:59:28.161Z,100239.38
2022-10-30T19:02:24.057Z,100236.96
2022-10-30T19:05:34.818Z,100229.42
2022-10-30T19:08:22.767Z,100235.66
2022-10-30T19:11:24.067Z,100235.53
2022-10-30T19:14:16.230Z,100241.98
2022-10-30T19:17:03.999Z,100242.35
2022-10-30T19:19:51.756Z,100243.01
2022-10-30T19:22:40.415Z,100243.33
2022-10-30T19:25:37.259Z,100238.96
2022-10-30T19:28:26.106Z,100244.77
2022-10-30T19:31:17.545Z,100243.36
2022-10-30T19:34:05.812Z,100243.47
2022-10-30T19:36:53.912Z,100246.55
2022-10-30T19:39:42.298Z,100242.23
2022-10-30T19:42:29.896Z,100241.05
2022-10-30T19:45:20.588Z,100234.50
2022-10-30T19:48:40.453Z,100233.41
2022-10-30T19:51:29.059Z,100236.06
2022-10-30T19:54:16.962Z,100236.09
2022-10-30T19:57:08.738Z,100240.52
2022-10-30T19:59:56.285Z,100241.17
2022-10-30T20:02:44.482Z,100240.34
2022-10-30T20:05:51.181Z,100240.66
2022-10-30T20:08:39.198Z,100236.85
2022-10-30T20:11:27.088Z,100236.89
2022-10-30T20:14:14.905Z,100237.81
2022-10-30T20:17:03.049Z,100235.84
2022-10-30T20:19:51.287Z,100235.27
2022-10-30T20:22:39.191Z,100232.39
2022-10-30T20:25:28.340Z,100236.84
2022-10-30T20:28:22.210Z,100237.56
2022-10-30T20:31:12.770Z,100239.17
2022-10-30T20:34:00.547Z,100233.49
2022-10-30T20:36:49.006Z,100231.48
2022-10-30T20:39:37.955Z,100231.84
2022-10-30T20:42:26.276Z,100228.55
2022-10-30T20:45:20.913Z,100226.11
2022-10-30T20:48:08.721Z,100227.36
2022-10-30T20:50:58.194Z,100225.04
2022-10-30T20:53:46.037Z,100222.48
2022-10-30T20:56:33.788Z,100220.73
2022-10-30T20:59:21.945Z,100216.13
2022-10-30T21:02:12.453Z,100220.62
2022-10-30T21:05:11.429Z,100220.93
2022-10-30T21:08:08.866Z,100222.42
2022-10-30T21:11:01.948Z,100224.64
2022-10-30T21:13:49.583Z,100216.73
2022-10-30T21:16:36.988Z,100218.49
2022-10-30T21:19:25.578Z,100217.05
2022-10-30T21:22:13.378Z,100216.98
2022-10-30T21:25:01.852Z,100213.30
2022-10-30T21:27:49.876Z,100215.01
2022-10-30T21:30:38.667Z,100214.02
2022-10-30T21:33:26.358Z,100214.63
2022-10-30T21:36:17.791Z,100210.73
2022-10-30T21:39:06.597Z,100211.52
2022-10-30T21:41:54.549Z,100213.44
2022-10-30T21:44:42.170Z,100213.02
2022-10-30T21:47:30.185Z,100211.24
2022-10-30T21:50:18.020Z,100211.30
2022-10-30T21:53:06.083Z,100210.10
2022-10-30T21:55:53.741Z,100208.02
2022-10-30T21:58:42.383Z,100209.72
2022-10-30T22:01:33.061Z,100212.03
2022-10-30T22:04:20.668Z,100211.91
2022-10-30T22:07:11.053Z,100209.66
2022-10-30T22:09:58.421Z,100207.63
2022-10-30T22:12:46.457Z,100208.92
2022-10-30T22:15:34.258Z,100210.23
2022-10-30T22:18:22.265Z,100207.27
2022-10-30T22:21:13.443Z,100202.36
2022-10-30T22:24:02.989Z,100198.27
2022-10-30T22:26:50.415Z,100200.19
2022-10-30T22:29:38.386Z,100202.22
2022-10-30T22:32:26.362Z,100201.13
2022-10-30T22:35:13.988Z,100198.76
2022-10-30T22:38:01.674Z,100191.16
2022-10-30T22:40:49.303Z,100192.79
2022-10-30T22:43:37.030Z,100193.95
2022-10-30T22:46:27.754Z,100194.46
2022-10-30T22:49:16.848Z,100194.26
2022-10-30T22:52:04.948Z,100191.98
2022-10-30T22:54:52.678Z,100196.37
2022-10-30T22:57:40.938Z,100191.94
2022-10-30T23:00:28.855Z,100188.21
2022-10-30T23:03:18.820Z,100187.20
2022-10-30T23:06:07.642Z,100184.67
2022-10-30T23:08:59.149Z,100191.08
2022-10-30T23:11:47.200Z,100187.03
2022-10-30T23:14:35.147Z,100182.82
2022-10-30T23:17:23.137Z,100179.45
2022-10-30T23:20:11.450Z,100184.71
2022-10-30T23:22:59.081Z,100186.55
2022-10-30T23:25:46.766Z,100185.95
2022-10-30T23:28:34.695Z,100184.48
2022-10-30T23:31:25.812Z,100185.13
2022-10-30T23:34:16.897Z,100186.23
2022-10-30T23:37:04.644Z,100188.77
2022-10-30T23:39:52.588Z,100191.27
2022-10-30T23:42:40.845Z,100187.63
2022-10-30T23:45:28.727Z,100188.23
2022-10-30T23:48:16.802Z,100194.88
2022-10-30T23:51:08.727Z,100197.85
2022-10-30T23:53:56.607Z,100194.41
2022-10-30T23:56:44.450Z,100195.06
2022-10-30T23:59:32.150Z,100196.22
